Time;durP1;ratioP1;P1;durP2;ratioP2;P2;SDS_P1;SDS_P2;PMS_P1;PMS_P2;Temp;Humidity;BMP_temperature;BMP_pressure;BME280_temperature;BME280_humidity;BME280_pressure;Samples;Min_cycle;Max_cycle;Signal;HPM_P1;HPM_P2
2023/01/15 00:01:52;;;;;;;0.87;0.40;;;;;;;7.98;100.00;95155.06;4854476;29;20034;-90
2023/01/15 00:04:18;;;;;;;1.63;0.40;;;;;;;8.04;100.00;95143.91;4817356;29;20046;-90
2023/01/15 00:06:47;;;;;;;0.73;0.33;;;;;;;8.05;100.00;95136.88;4837336;29;20126;-90
2023/01/15 00:09:14;;;;;;;0.93;0.43;;;;;;;8.09;100.00;95134.75;4861502;29;20075;-90
2023/01/15 00:11:40;;;;;;;1.37;0.37;;;;;;;8.08;100.00;95122.59;4829784;29;20098;-90
2023/01/15 00:14:07;;;;;;;0.40;0.30;;;;;;;8.04;100.00;95119.53;4840965;29;20072;-90
2023/01/15 00:16:33;;;;;;;1.23;0.30;;;;;;;8.02;100.00;95106.63;4833422;29;20515;-90
2023/01/15 00:19:00;;;;;;;1.07;0.57;;;;;;;8.08;100.00;95107.75;4839878;29;20041;-89
2023/01/15 00:21:28;;;;;;;0.97;0.37;;;;;;;8.09;100.00;95104.13;4831909;29;20038;-89
2023/01/15 00:29:23;;;;;;;0.60;0.30;;;;;;;8.32;100.00;95082.41;4851131;29;20129;-89
2023/01/15 00:31:59;;;;;;;0.47;0.20;;;;;;;8.33;100.00;95070.94;4864020;29;20040;-90
2023/01/15 00:34:26;;;;;;;1.13;0.40;;;;;;;8.44;100.00;95063.50;4835879;29;20076;-89
2023/01/15 00:37:20;;;;;;;0.80;0.40;;;;;;;8.50;100.00;95059.38;4851033;29;20053;-90
2023/01/15 00:40:13;;;;;;;1.47;0.33;;;;;;;8.57;100.00;95049.81;4850586;29;20049;-89
2023/01/15 00:42:39;;;;;;;2.43;0.70;;;;;;;8.54;100.00;95047.53;4848497;29;20133;-90
2023/01/15 00:45:09;;;;;;;0.67;0.30;;;;;;;8.58;100.00;95038.34;4830442;29;20070;-89
2023/01/15 00:47:36;;;;;;;2.00;1.13;;;;;;;8.60;100.00;95038.97;4833570;29;20131;-90
2023/01/15 00:50:04;;;;;;;1.67;0.80;;;;;;;8.64;100.00;95035.00;4832140;29;20531;-88
2023/01/15 00:52:39;;;;;;;1.37;0.50;;;;;;;8.72;100.00;95042.81;4836361;29;20038;-89
2023/01/15 00:55:06;;;;;;;2.87;0.60;;;;;;;8.65;100.00;95043.69;4834143;29;20101;-89
2023/01/15 00:57:32;;;;;;;2.70;0.70;;;;;;;8.72;100.00;95036.78;4831775;29;20699;-89
2023/01/15 01:00:03;;;;;;;2.47;0.50;;;;;;;8.79;100.00;95036.88;4835786;29;20076;-90
2023/01/15 01:02:28;;;;;;;1.17;0.30;;;;;;;8.70;100.00;95029.06;4848222;29;20105;-89
2023/01/15 01:04:54;;;;;;;0.43;0.20;;;;;;;8.78;100.00;95027.38;4829671;29;20786;-89
2023/01/15 01:07:22;;;;;;;0.80;0.50;;;;;;;8.83;100.00;95025.84;4869451;29;20055;-89
2023/01/15 01:09:47;;;;;;;0.70;0.40;;;;;;;8.74;100.00;95037.38;4848670;29;20070;-89
2023/01/15 01:12:14;;;;;;;1.50;0.40;;;;;;;8.67;100.00;95021.56;4842055;29;20034;-90
2023/01/15 01:14:40;;;;;;;0.70;0.40;;;;;;;8.85;100.00;95015.16;4850927;29;20097;-90
2023/01/15 01:17:06;;;;;;;1.17;0.30;;;;;;;8.85;100.00;95009.94;4831185;29;20037;-89
2023/01/15 01:19:31;;;;;;;1.17;0.60;;;;;;;8.83;100.00;95011.94;4849511;29;20042;-89
2023/01/15 01:21:57;;;;;;;0.90;0.17;;;;;;;8.90;100.00;95018.09;4828989;29;20041;-89
2023/01/15 01:24:23;;;;;;;0.20;0.20;;;;;;;8.78;100.00;95016.88;4845419;29;20062;-89
2023/01/15 01:26:50;;;;;;;0.73;0.30;;;;;;;8.90;100.00;95004.97;4833849;29;20033;-90
2023/01/15 01:29:19;;;;;;;3.17;0.30;;;;;;;8.76;100.00;95000.53;4834100;29;20033;-89
2023/01/15 01:31:45;;;;;;;0.47;0.20;;;;;;;8.71;100.00;95001.84;4837872;29;20033;-89
2023/01/15 01:34:17;;;;;;;1.90;0.30;;;;;;;8.68;100.00;95007.44;4825663;29;20038;-88
2023/01/15 01:36:44;;;;;;;0.40;0.20;;;;;;;8.66;100.00;94993.72;4827642;29;20050;-89
2023/01/15 01:39:19;;;;;;;0.77;0.20;;;;;;;8.69;100.00;94988.13;4828006;29;20038;-89
2023/01/15 01:41:59;;;;;;;0.87;0.30;;;;;;;8.68;100.00;94985.69;4828796;29;20046;-89
2023/01/15 01:45:12;;;;;;;0.67;0.37;;;;;;;8.69;100.00;94977.66;4862349;29;20056;-89
2023/01/15 01:47:43;;;;;;;0.50;0.20;;;;;;;8.86;100.00;94972.25;4842544;29;20056;-89
2023/01/15 01:50:13;;;;;;;0.93;0.30;;;;;;;8.83;100.00;94964.75;4841984;29;20129;-89
2023/01/15 01:52:48;;;;;;;1.90;0.50;;;;;;;8.76;100.00;94959.41;4843610;29;20052;-89
2023/01/15 01:55:17;;;;;;;0.83;0.30;;;;;;;8.77;100.00;94966.25;4839186;29;20096;-89
2023/01/15 01:57:45;;;;;;;0.30;0.10;;;;;;;8.85;100.00;94962.75;4827751;29;20041;-89
2023/01/15 02:00:16;;;;;;;0.23;0.20;;;;;;;8.88;100.00;94957.13;4831447;29;20038;-89
2023/01/15 02:02:55;;;;;;;0.20;0.10;;;;;;;8.91;100.00;94959.41;4848844;29;20071;-89
2023/01/15 02:05:28;;;;;;;1.70;0.27;;;;;;;8.95;100.00;94944.94;4840531;29;20040;-90
2023/01/15 02:08:00;;;;;;;1.45;0.35;;;;;;;9.08;100.00;94945.13;4851665;29;20041;-90
2023/01/15 02:10:27;;;;;;;1.17;0.27;;;;;;;8.96;100.00;94943.97;4835859;29;20048;-89
2023/01/15 02:13:15;;;;;;;0.80;0.30;;;;;;;9.02;100.00;94932.75;4826699;29;20034;-89
2023/01/15 02:15:47;;;;;;;0.80;0.20;;;;;;;9.10;100.00;94914.28;4834654;29;20177;-89
2023/01/15 02:18:29;;;;;;;0.70;0.30;;;;;;;9.20;100.00;94909.56;4827686;29;20100;-89
2023/01/15 02:21:01;;;;;;;1.20;0.33;;;;;;;9.06;100.00;94917.47;4837010;29;20629;-89
2023/01/15 02:23:50;;;;;;;0.85;0.22;;;;;;;9.02;100.00;94913.56;4852768;29;20038;-89
2023/01/15 02:26:53;;;;;;;0.77;0.37;;;;;;;9.19;100.00;94901.91;4844252;29;20093;-90
2023/01/15 02:29:52;;;;;;;0.10;0.10;;;;;;;9.20;100.00;94901.72;4830217;29;20672;-89
2023/01/15 02:32:26;;;;;;;0.30;0.10;;;;;;;9.17;100.00;94898.63;4776138;30;20059;-89
2023/01/15 02:34:58;;;;;;;0.33;0.20;;;;;;;9.15;100.00;94898.84;4769352;30;20131;-89
2023/01/15 02:37:31;;;;;;;0.30;0.20;;;;;;;9.12;100.00;94907.06;4820516;29;20102;-89
2023/01/15 02:40:09;;;;;;;0.20;0.20;;;;;;;9.04;100.00;94915.00;4845346;29;20540;-88
2023/01/15 02:42:36;;;;;;;3.30;1.40;;;;;;;9.18;100.00;94900.25;4829992;29;20040;-89
2023/01/15 02:45:07;;;;;;;0.43;0.10;;;;;;;9.03;100.00;94900.28;4827291;29;20065;-89
2023/01/15 02:47:37;;;;;;;1.13;0.20;;;;;;;9.21;100.00;94905.13;4837203;29;20416;-89
2023/01/15 02:50:26;;;;;;;0.38;0.20;;;;;;;9.15;100.00;94895.38;4812735;29;20038;-89
2023/01/15 02:52:59;;;;;;;0.10;0.10;;;;;;;9.14;100.00;94894.56;4832619;29;20045;-89
2023/01/15 02:55:37;;;;;;;1.20;0.20;;;;;;;9.11;100.00;94888.88;4833980;29;20075;-89
2023/01/15 02:58:07;;;;;;;1.53;0.37;;;;;;;9.15;100.00;94883.09;4797221;29;20066;-89
2023/01/15 03:00:37;;;;;;;0.20;0.20;;;;;;;9.21;100.00;94877.09;4840730;29;20124;-89
2023/01/15 03:03:18;;;;;;;0.47;0.17;;;;;;;9.28;100.00;94868.50;4843089;29;20029;-89
2023/01/15 03:06:03;;;;;;;0.40;0.20;;;;;;;9.19;100.00;94871.22;4836249;29;20045;-89
2023/01/15 03:08:29;;;;;;;0.20;0.20;;;;;;;9.15;100.00;94879.63;4838339;29;20244;-89
2023/01/15 03:11:07;;;;;;;0.73;0.30;;;;;;;9.19;100.00;94881.72;4837972;29;20120;-89
2023/01/15 03:13:47;;;;;;;0.40;0.20;;;;;;;9.21;100.00;94874.47;4819585;29;20561;-89
2023/01/15 03:16:42;;;;;;;1.93;0.60;;;;;;;9.25;100.00;94880.16;4831481;29;20076;-89
2023/01/15 03:19:15;;;;;;;2.08;0.20;;;;;;;9.15;100.00;94885.72;4832451;29;20042;-89
2023/01/15 03:22:03;;;;;;;0.20;0.20;;;;;;;9.16;100.00;94882.09;4827765;29;20042;-89
2023/01/15 03:24:36;;;;;;;0.33;0.20;;;;;;;9.15;100.00;94883.09;4816891;29;20337;-88
2023/01/15 03:27:03;;;;;;;0.50;0.20;;;;;;;9.11;100.00;94888.88;4829365;29;20034;-89
2023/01/15 03:29:41;;;;;;;2.80;0.50;;;;;;;9.08;100.00;94886.63;4820976;29;20040;-89
2023/01/15 03:32:07;;;;;;;0.60;0.30;;;;;;;9.03;100.00;94884.56;4832372;29;20498;-90
2023/01/15 03:34:40;;;;;;;0.90;0.20;;;;;;;8.94;100.00;94890.88;4847974;29;20026;-90
2023/01/15 03:37:07;;;;;;;0.83;0.20;;;;;;;8.89;100.00;94886.19;4821195;29;20128;-90
2023/01/15 03:39:51;;;;;;;0.40;0.20;;;;;;;8.93;100.00;94895.31;4806653;29;20618;-89
2023/01/15 03:43:39;;;;;;;1.03;0.30;;;;;;;8.89;100.00;94885.38;4852182;29;20030;-89
2023/01/15 03:45:50;;;;;;;0.40;0.20;;;;;;;8.82;100.00;94885.28;4849596;29;20052;-89
2023/01/15 03:48:27;;;;;;;0.63;0.20;;;;;;;8.71;100.00;94883.91;4837914;29;20505;-88
2023/01/15 03:51:12;;;;;;;0.10;0.00;;;;;;;8.71;100.00;94883.09;4824011;29;20044;-89
2023/01/15 03:53:42;;;;;;;;;;;;;;;8.63;100.00;94888.44;4845959;29;20163;-88
2023/01/15 03:56:22;;;;;;;0.90;0.33;;;;;;;8.55;100.00;94886.75;4813627;29;19921;-89
2023/01/15 03:59:12;;;;;;;2.27;0.23;;;;;;;8.50;100.00;94883.81;4843378;29;20134;-89
2023/01/15 04:02:00;;;;;;;0.53;0.20;;;;;;;8.49;100.00;94893.50;4834673;29;20047;-89
2023/01/15 04:04:29;;;;;;;1.10;0.20;;;;;;;8.54;100.00;94879.03;4827512;29;20500;-89
2023/01/15 04:06:56;;;;;;;0.00;0.00;;;;;;;8.51;100.00;94869.72;4815917;29;20066;-88
2023/01/15 04:09:22;;;;;;;0.10;0.10;;;;;;;8.49;100.00;94879.59;4853741;29;20445;-89
2023/01/15 04:11:51;;;;;;;0.40;0.10;;;;;;;8.59;100.00;94874.09;4850055;29;20042;-88
2023/01/15 04:14:22;;;;;;;0.33;0.20;;;;;;;8.53;100.00;94865.13;4813156;29;20046;-88
2023/01/15 04:16:52;;;;;;;0.80;0.30;;;;;;;8.48;100.00;94875.31;4837140;29;20038;-88
2023/01/15 04:19:26;;;;;;;3.13;1.20;;;;;;;8.50;100.00;94868.09;4843211;29;20049;-89
2023/01/15 04:21:57;;;;;;;2.23;1.20;;;;;;;8.52;100.00;94860.88;4825191;29;20049;-88
2023/01/15 04:24:24;;;;;;;2.97;1.13;;;;;;;8.48;100.00;94865.69;4833971;29;20039;-89
2023/01/15 04:26:50;;;;;;;1.03;0.50;;;;;;;8.43;100.00;94867.19;4832042;29;20201;-89
2023/01/15 04:29:16;;;;;;;0.27;0.23;;;;;;;8.52;100.00;94863.50;4845360;29;20037;-89
2023/01/15 04:31:41;;;;;;;1.80;0.30;;;;;;;8.48;100.00;94847.34;4826829;29;21033;-88
2023/01/15 04:34:07;;;;;;;0.40;0.20;;;;;;;8.54;100.00;94834.50;4841647;29;20082;-89
2023/01/15 04:36:36;;;;;;;1.50;0.40;;;;;;;8.57;100.00;94823.66;4853235;29;20072;-89
2023/01/15 04:39:08;;;;;;;0.20;0.20;;;;;;;8.53;100.00;94823.22;4841963;29;20512;-89
2023/01/15 04:44:18;;;;;;;0.87;0.70;;;;;;;8.58;100.00;94823.47;4841488;29;20054;-89
2023/01/15 04:46:46;;;;;;;0.30;0.23;;;;;;;8.62;100.00;94830.00;4841185;29;20037;-89
2023/01/15 04:49:16;;;;;;;1.13;0.43;;;;;;;8.59;100.00;94822.50;4848894;29;20042;-89
2023/01/15 04:51:43;;;;;;;0.20;0.20;;;;;;;8.59;100.00;94816.44;4831919;29;20041;-90
2023/01/15 04:54:11;;;;;;;1.53;0.30;;;;;;;8.66;100.00;94810.28;4821157;29;20037;-89
2023/01/15 04:56:46;;;;;;;0.30;0.07;;;;;;;8.63;100.00;94810.66;4835022;29;20030;-89
2023/01/15 04:59:21;;;;;;;1.70;0.30;;;;;;;8.64;100.00;94814.06;4847329;29;20041;-89
2023/01/15 05:01:47;;;;;;;0.57;0.30;;;;;;;8.57;100.00;94806.13;4864492;29;20065;-89
2023/01/15 05:04:13;;;;;;;0.53;0.20;;;;;;;8.67;100.00;94804.03;4862527;29;20049;-89
2023/01/15 05:06:39;;;;;;;0.27;0.20;;;;;;;8.76;100.00;94806.56;4830620;29;20054;-89
2023/01/15 05:09:06;;;;;;;0.80;0.20;;;;;;;8.70;100.00;94803.66;4835101;29;20032;-89
2023/01/15 05:11:45;;;;;;;1.53;0.30;;;;;;;8.64;100.00;94807.03;4847893;29;20486;-89
2023/01/15 05:14:11;;;;;;;2.03;0.40;;;;;;;8.69;100.00;94809.91;4826876;29;20037;-89
2023/01/15 05:16:46;;;;;;;0.53;0.30;;;;;;;8.68;100.00;94799.59;4833294;29;21236;-89
2023/01/15 05:19:19;;;;;;;0.53;0.10;;;;;;;8.71;100.00;94810.53;4819810;29;20504;-89
2023/01/15 05:22:11;;;;;;;0.22;0.10;;;;;;;8.66;100.00;94799.00;4823910;29;20046;-89
2023/01/15 05:24:40;;;;;;;1.00;0.30;;;;;;;8.77;100.00;94792.47;4823589;29;20066;-89
2023/01/15 05:27:07;;;;;;;0.10;0.10;;;;;;;8.82;100.00;94798.78;4827047;29;20046;-89
2023/01/15 05:29:33;;;;;;;0.77;0.00;;;;;;;8.89;100.00;94791.81;4840524;29;20057;-89
2023/01/15 05:31:59;;;;;;;0.03;0.00;;;;;;;8.85;100.00;94789.72;4842694;29;20048;-89
2023/01/15 05:34:24;;;;;;;1.03;0.10;;;;;;;8.96;100.00;94797.94;4828131;29;20124;-89
2023/01/15 05:37:01;;;;;;;0.33;0.10;;;;;;;8.95;100.00;94796.31;4828686;29;20059;-89
2023/01/15 05:39:26;;;;;;;1.13;0.30;;;;;;;8.95;100.00;94803.34;4844268;29;20280;-89
2023/01/15 05:41:56;;;;;;;0.20;0.10;;;;;;;9.03;100.00;94798.00;4822736;29;20129;-89
2023/01/15 05:44:28;;;;;;;0.50;0.20;;;;;;;9.00;100.00;94808.88;4846066;29;20064;-89
2023/01/15 05:47:06;;;;;;;1.77;0.10;;;;;;;9.02;100.00;94800.81;4831933;29;20509;-89
2023/01/15 05:49:34;;;;;;;0.30;0.10;;;;;;;9.05;100.00;94790.75;4807662;29;20095;-88
2023/01/15 05:52:07;;;;;;;4.00;1.63;;;;;;;9.03;100.00;94797.22;4815174;29;20037;-89
2023/01/15 05:54:35;;;;;;;0.63;0.20;;;;;;;9.08;100.00;94795.63;4814822;29;20053;-89
2023/01/15 05:57:03;;;;;;;0.37;0.10;;;;;;;9.24;100.00;94799.03;4855242;29;20068;-88
2023/01/15 05:59:31;;;;;;;0.37;0.20;;;;;;;9.26;100.00;94804.94;4838968;29;20034;-89
2023/01/15 06:01:58;;;;;;;0.10;0.10;;;;;;;9.32;100.00;94801.53;4835617;29;20128;-89
2023/01/15 06:04:25;;;;;;;0.10;0.10;;;;;;;9.34;100.00;94805.59;4826960;29;20021;-89
2023/01/15 06:07:28;;;;;;;0.00;0.00;;;;;;;9.29;100.00;94809.78;4809577;29;20037;-89
2023/01/15 06:10:00;;;;;;;0.88;0.22;;;;;;;9.40;100.00;94798.81;4826681;29;20049;-88
2023/01/15 06:12:26;;;;;;;0.67;0.30;;;;;;;9.30;100.00;94793.06;4819903;29;20083;-89
2023/01/15 06:14:52;;;;;;;0.90;0.27;;;;;;;9.28;100.00;94821.28;4789399;29;20067;-89
2023/01/15 06:17:17;;;;;;;0.43;0.17;;;;;;;9.29;100.00;94841.25;4796222;29;20169;-89
2023/01/15 06:19:43;;;;;;;0.40;0.10;;;;;;;8.60;100.00;94855.56;4809446;29;20046;-93
2023/01/15 06:22:12;;;;;;;0.50;0.10;;;;;;;8.03;100.00;94864.75;4798322;29;20389;-91
2023/01/15 06:24:37;;;;;;;0.80;0.20;;;;;;;7.87;100.00;94890.25;4788033;29;20030;-92
2023/01/15 06:27:06;;;;;;;16.93;9.63;;;;;;;7.65;100.00;94897.94;4775700;29;20093;-95
2023/01/15 06:29:32;;;;;;;4.10;1.77;;;;;;;7.54;100.00;94904.38;4789559;29;20326;-90
2023/01/15 06:31:57;;;;;;;0.10;0.10;;;;;;;7.25;100.00;94891.94;4807073;29;20075;-96
2023/01/15 06:34:23;;;;;;;0.93;0.10;;;;;;;6.98;100.00;94921.16;4803636;29;20541;-96
2023/01/15 06:36:49;;;;;;;0.57;0.20;;;;;;;6.95;100.00;94918.88;4832416;29;20042;-95
2023/01/15 06:39:15;;;;;;;0.27;0.20;;;;;;;6.87;100.00;94924.94;4818077;29;20073;-96
2023/01/15 06:47:20;;;;;;;0.20;0.10;;;;;;;6.65;100.00;94931.72;4808716;29;20042;-95
2023/01/15 06:49:53;;;;;;;8.00;4.70;;;;;;;6.53;100.00;94938.25;4807776;29;20148;-96
2023/01/15 06:52:19;;;;;;;4.97;2.58;;;;;;;6.49;100.00;94945.59;4823342;29;20065;-95
2023/01/15 06:54:48;;;;;;;2.43;0.20;;;;;;;6.46;100.00;94948.53;4793941;29;20081;-95
2023/01/15 06:57:14;;;;;;;0.03;0.00;;;;;;;6.38;100.00;94956.41;4808406;29;20026;-94
2023/01/15 06:59:40;;;;;;;0.50;0.10;;;;;;;6.28;100.00;94972.25;4795652;29;20651;-95
2023/01/15 07:02:06;;;;;;;1.57;0.10;;;;;;;6.24;100.00;94980.56;4803232;29;20046;-95
2023/01/15 07:04:32;;;;;;;1.67;0.20;;;;;;;6.24;100.00;94980.56;4793715;29;20178;-94
2023/01/15 07:06:57;;;;;;;1.63;0.50;;;;;;;6.19;100.00;94973.22;4800517;29;21070;-95
2023/01/15 07:09:24;;;;;;;0.50;0.23;;;;;;;6.20;100.00;94980.06;4771636;29;20507;-94
2023/01/15 07:11:50;;;;;;;1.37;0.50;;;;;;;6.21;100.00;94989.53;4788052;29;20076;-95
2023/01/15 07:14:26;;;;;;;0.77;0.40;;;;;;;6.12;100.00;94995.72;4803495;29;20101;-94
2023/01/15 07:16:52;;;;;;;0.20;0.20;;;;;;;6.12;100.00;95004.38;4808224;29;20033;-94
2023/01/15 07:19:19;;;;;;;0.50;0.20;;;;;;;6.08;100.00;95005.66;4799836;29;20038;-94
2023/01/15 07:21:45;;;;;;;0.70;0.30;;;;;;;6.09;100.00;95019.53;4818702;29;20057;-93
2023/01/15 07:24:12;;;;;;;0.73;0.27;;;;;;;6.06;100.00;95025.06;4826563;29;20098;-94
2023/01/15 07:26:38;;;;;;;1.77;0.20;;;;;;;5.96;100.00;95034.84;4813272;29;20062;-94
2023/01/15 07:29:04;;;;;;;1.07;0.20;;;;;;;5.96;100.00;95037.44;4834394;29;20046;-93
2023/01/15 07:31:30;;;;;;;0.07;0.07;;;;;;;5.99;100.00;95052.78;4814113;29;20084;-94
2023/01/15 07:33:56;;;;;;;2.27;0.33;;;;;;;5.88;100.00;95054.69;4829061;29;20042;-94
2023/01/15 07:36:23;;;;;;;1.73;0.20;;;;;;;5.87;100.00;95057.47;4839389;29;20049;-93
2023/01/15 07:38:49;;;;;;;0.67;0.50;;;;;;;5.86;100.00;95064.47;4854771;29;20158;-92
2023/01/15 07:49:45;;;;;;;0.10;0.10;;;;;;;5.42;100.00;95100.31;4769548;29;20050;-94
2023/01/15 07:52:19;;;;;;;0.20;0.15;;;;;;;5.40;100.00;95107.50;4728700;29;20068;-93
2023/01/15 07:54:46;;;;;;;0.27;0.10;;;;;;;5.30;100.00;95112.81;4724550;29;20065;-93
2023/01/15 07:57:20;;;;;;;0.40;0.30;;;;;;;5.20;100.00;95115.53;4726783;29;21320;-93
2023/01/15 07:59:47;;;;;;;0.20;0.10;;;;;;;5.23;100.00;95135.25;4753537;29;20079;-93
2023/01/15 08:02:13;;;;;;;1.13;0.20;;;;;;;5.18;100.00;95137.50;4749171;29;20037;-93
2023/01/15 08:04:39;;;;;;;0.60;0.13;;;;;;;5.02;100.00;95151.22;4730082;29;21033;-94
2023/01/15 08:07:07;;;;;;;0.30;0.10;;;;;;;4.99;100.00;95151.53;4753551;29;20049;-93
2023/01/15 08:09:32;;;;;;;0.40;0.10;;;;;;;4.93;100.00;95144.34;4739271;29;20056;-93
2023/01/15 08:17:29;;;;;;;0.33;0.10;;;;;;;4.65;100.00;95170.44;4802148;29;20781;-93
2023/01/15 08:19:55;;;;;;;0.20;0.10;;;;;;;4.62;100.00;95193.38;4809373;29;20042;-94
2023/01/15 08:22:21;;;;;;;0.53;0.23;;;;;;;4.53;100.00;95186.44;4820603;29;20040;-93
2023/01/15 08:24:49;;;;;;;0.80;0.33;;;;;;;4.59;100.00;95191.06;4830300;29;20098;-93
2023/01/15 08:27:15;;;;;;;2.73;1.03;;;;;;;4.50;100.00;95208.41;4831873;29;20117;-94
2023/01/15 08:29:44;;;;;;;0.73;0.20;;;;;;;4.34;100.00;95213.44;4812407;29;20061;-95
2023/01/15 08:32:11;;;;;;;0.97;0.33;;;;;;;4.35;100.00;95209.84;4806609;29;20038;-94
2023/01/15 08:34:37;;;;;;;0.37;0.27;;;;;;;4.34;100.00;95195.22;4803793;29;20607;-94
2023/01/15 08:37:02;;;;;;;0.90;0.10;;;;;;;4.23;100.00;95198.84;4789074;29;20038;-93
2023/01/15 08:39:28;;;;;;;3.97;0.60;;;;;;;4.31;100.00;95214.53;4793050;29;20046;-94
2023/01/15 08:41:55;;;;;;;0.40;0.20;;;;;;;4.33;100.00;95212.63;4803464;29;20106;-93
2023/01/15 08:44:23;;;;;;;0.43;0.23;;;;;;;4.29;100.00;95213.84;4828601;29;20583;-94
2023/01/15 08:46:50;;;;;;;0.10;0.10;;;;;;;4.29;100.00;95208.63;4807559;29;20048;-94
2023/01/15 08:49:18;;;;;;;1.23;0.40;;;;;;;4.36;100.00;95216.69;4823012;29;20034;-94
2023/01/15 08:51:46;;;;;;;1.73;0.70;;;;;;;4.22;100.00;95215.41;4804522;29;20493;-94
2023/01/15 08:54:13;;;;;;;8.50;4.63;;;;;;;4.27;100.00;95213.19;4801207;29;20041;-94
2023/01/15 08:56:39;;;;;;;2.03;1.10;;;;;;;4.29;100.00;95216.44;4794098;29;20500;-94
2023/01/15 08:59:07;;;;;;;0.77;0.30;;;;;;;4.25;100.00;95223.72;4801833;29;20042;-94
2023/01/15 09:01:39;;;;;;;0.80;0.40;;;;;;;4.37;100.00;95218.34;4778695;29;20044;-93
2023/01/15 09:04:12;;;;;;;0.70;0.50;;;;;;;4.32;100.00;95234.38;4748125;29;20805;-94
2023/01/15 09:06:38;;;;;;;2.50;0.50;;;;;;;4.21;100.00;95245.81;4754302;29;20155;-93
2023/01/15 09:09:07;;;;;;;3.27;0.67;;;;;;;4.20;100.00;95245.97;4738516;29;20390;-94
2023/01/15 09:11:39;;;;;;;1.63;0.40;;;;;;;4.22;100.00;95246.63;4756642;29;20070;-95
2023/01/15 09:14:10;;;;;;;1.50;0.60;;;;;;;4.25;100.00;95243.72;4742325;29;20041;-93
2023/01/15 09:16:39;;;;;;;1.03;0.70;;;;;;;4.24;100.00;95240.31;4780415;29;20133;-93
2023/01/15 09:19:06;;;;;;;2.03;0.77;;;;;;;4.11;100.00;95254.63;4776764;29;20044;-93
2023/01/15 09:21:34;;;;;;;0.30;0.30;;;;;;;4.13;100.00;95252.72;4753078;29;20041;-93
2023/01/15 09:24:01;;;;;;;1.00;0.50;;;;;;;4.20;100.00;95264.19;4775956;29;20042;-92
2023/01/15 09:26:34;;;;;;;0.53;0.30;;;;;;;4.18;100.00;95260.88;4823248;29;20085;-94
2023/01/15 09:29:01;;;;;;;0.20;0.20;;;;;;;4.22;100.00;95272.66;4776022;29;20118;-93
2023/01/15 09:31:28;;;;;;;1.47;0.67;;;;;;;4.18;100.00;95268.69;4811126;29;20050;-94
2023/01/15 09:33:54;;;;;;;0.70;0.40;;;;;;;4.17;100.00;95270.47;4789044;29;20801;-95
2023/01/15 09:36:28;;;;;;;0.80;0.40;;;;;;;4.22;100.00;95264.84;4782464;29;20033;-94
2023/01/15 09:38:55;;;;;;;0.20;0.10;;;;;;;4.18;100.00;95266.09;4766589;29;20033;-94
2023/01/15 09:42:14;;;;;;;0.30;0.10;;;;;;;4.08;100.00;95281.75;4809654;29;20029;-94
2023/01/15 09:45:05;;;;;;;0.53;0.20;;;;;;;4.05;100.00;95286.41;4778567;29;20042;-95
2023/01/15 09:48:05;;;;;;;0.50;0.20;;;;;;;4.05;100.00;95271.63;4761480;29;20038;-94
2023/01/15 09:50:52;;;;;;;1.20;0.40;;;;;;;4.03;100.00;95290.97;4775821;29;20075;-93
2023/01/15 09:56:34;;;;;;;1.50;0.43;;;;;;;3.93;100.00;95299.59;4791988;29;20096;-94
2023/01/15 09:59:11;;;;;;;2.30;1.00;;;;;;;3.96;100.00;95301.09;4760996;29;20065;-93
2023/01/15 10:01:41;;;;;;;34.60;20.63;;;;;;;3.90;100.00;95317.28;4707792;29;20065;-93
2023/01/15 10:04:48;;;;;;;0.20;0.20;;;;;;;3.78;100.00;95314.81;4786589;29;20053;-94
2023/01/15 10:07:37;;;;;;;1.03;0.17;;;;;;;3.76;100.00;95328.94;4810101;29;20042;-91
2023/01/15 10:10:14;;;;;;;0.30;0.30;;;;;;;3.76;100.00;95321.13;4729281;29;20063;-90
2023/01/15 10:12:50;;;;;;;13.13;3.70;;;;;;;3.70;100.00;95327.72;4761372;29;20136;-90
2023/01/15 10:15:35;;;;;;;39.17;13.67;;;;;;;3.64;100.00;95314.44;4769398;29;20045;-89
2023/01/15 10:18:07;;;;;;;9.53;3.33;;;;;;;3.68;100.00;95321.00;4836540;29;20046;-88
2023/01/15 10:20:54;;;;;;;6.17;1.40;;;;;;;3.76;100.00;95314.16;4830848;29;20038;-88
2023/01/15 10:23:42;;;;;;;8.80;2.60;;;;;;;3.85;100.00;95316.84;4791399;29;20115;-88
2023/01/15 10:26:31;;;;;;;5.60;3.50;;;;;;;3.75;100.00;95309.06;4804453;29;20034;-89
2023/01/15 14:06:19;;;;;;;0.90;0.60;;;;;;;2.15;100.00;95566.13;4932612;23;20230;-87
2023/01/15 14:08:51;;;;;;;2.07;1.10;;;;;;;2.21;100.00;95577.75;4843126;29;20090;-87
2023/01/15 14:11:38;;;;;;;1.93;1.13;;;;;;;2.20;100.00;95582.13;4862128;29;20065;-90
2023/01/15 14:14:25;;;;;;;0.77;0.47;;;;;;;2.17;100.00;95577.19;4840506;29;20085;-90
2023/01/15 14:16:57;;;;;;;1.73;0.80;;;;;;;2.26;100.00;95580.81;4866723;29;20045;-90
2023/01/15 14:19:51;;;;;;;3.93;0.93;;;;;;;2.18;100.00;95580.59;4861505;29;20045;-90
2023/01/15 14:22:39;;;;;;;0.90;0.60;;;;;;;2.21;100.00;95588.13;4851109;29;20040;-90
2023/01/15 14:25:19;;;;;;;7.97;3.57;;;;;;;2.20;100.00;95591.69;4873461;29;20037;-90
2023/01/15 14:28:22;;;;;;;7.37;2.43;;;;;;;2.31;100.00;95591.63;4857584;29;20025;-90
2023/01/15 14:31:22;;;;;;;1.37;0.70;;;;;;;2.36;100.00;95594.69;4843568;29;20041;-90
2023/01/15 14:34:13;;;;;;;2.23;1.10;;;;;;;2.43;100.00;95590.63;4855877;29;20045;-90
2023/01/15 14:37:36;;;;;;;2.40;1.17;;;;;;;2.33;100.00;95592.34;4851963;29;20037;-90
2023/01/15 14:40:25;;;;;;;3.65;0.80;;;;;;;2.36;100.00;95597.28;4862378;29;20049;-90
2023/01/15 14:43:00;;;;;;;3.80;1.20;;;;;;;2.37;100.00;95585.94;4846785;29;20132;-90
2023/01/15 14:45:41;;;;;;;1.23;0.40;;;;;;;2.45;100.00;95580.97;4863415;29;20034;-90
2023/01/15 14:48:51;;;;;;;3.27;1.07;;;;;;;2.50;100.00;95578.81;4854122;29;20098;-89
2023/01/15 14:51:25;;;;;;;2.03;0.70;;;;;;;2.49;100.00;95587.53;4849608;29;20481;-89
2023/01/15 14:54:33;;;;;;;2.13;0.80;;;;;;;2.52;100.00;95597.69;4861057;29;20049;-90
2023/01/15 14:57:00;;;;;;;1.23;0.60;;;;;;;2.48;100.00;95590.25;4851734;29;20044;-90
2023/01/15 14:59:48;;;;;;;3.60;1.33;;;;;;;2.51;100.00;95595.19;4846406;29;20037;-90
2023/01/15 15:02:22;;;;;;;2.83;1.10;;;;;;;2.47;100.00;95602.41;4860730;29;20040;-90
2023/01/15 15:04:57;;;;;;;3.33;0.97;;;;;;;2.52;100.00;95597.69;4862939;29;20129;-90
2023/01/15 15:07:32;;;;;;;2.23;0.57;;;;;;;2.51;100.00;95597.78;4859001;29;20037;-90
2023/01/15 15:10:16;;;;;;;2.03;0.80;;;;;;;2.42;100.00;95604.56;4843304;29;20044;-90
2023/01/15 15:13:03;;;;;;;2.10;0.70;;;;;;;2.52;100.00;95597.69;4874634;29;20037;-90
2023/01/15 15:15:35;;;;;;;1.77;0.80;;;;;;;2.55;100.00;95599.22;4853068;29;20033;-90
2023/01/15 15:18:10;;;;;;;2.23;0.60;;;;;;;2.54;100.00;95600.13;4846383;29;20065;-90
2023/01/15 15:20:57;;;;;;;5.70;2.50;;;;;;;2.59;100.00;95587.63;4835215;29;20037;-90
2023/01/15 15:23:27;;;;;;;4.53;0.67;;;;;;;2.60;100.00;95599.63;4855436;29;20026;-89
2023/01/15 15:26:05;;;;;;;2.37;1.03;;;;;;;2.57;100.00;95594.69;4851330;29;20116;-90
2023/01/15 15:28:36;;;;;;;2.93;0.93;;;;;;;2.50;100.00;95598.75;4851729;29;20034;-89
2023/01/15 15:31:02;;;;;;;7.67;1.43;;;;;;;2.50;100.00;95596.97;4858582;29;20310;-90
2023/01/15 15:33:40;;;;;;;3.90;0.93;;;;;;;2.47;100.00;95589.44;4842171;29;20045;-90
2023/01/15 15:36:08;;;;;;;2.97;0.50;;;;;;;2.44;100.00;95584.50;4865057;29;20033;-91
2023/01/15 15:38:34;;;;;;;1.40;0.60;;;;;;;2.38;100.00;95591.94;4862942;29;20100;-90
2023/01/15 15:41:11;;;;;;;2.37;0.80;;;;;;;2.45;100.00;95591.34;4846065;29;20037;-88
2023/01/15 15:50:00;;;;;;;6.30;1.70;;;;;;;2.49;100.00;95597.94;4807694;29;20139;-87
2023/01/15 15:52:26;;;;;;;2.53;0.70;;;;;;;2.43;100.00;95598.41;4832604;29;20038;-87
2023/01/15 15:55:04;;;;;;;2.40;1.10;;;;;;;2.41;100.00;95592.53;4873933;29;20024;-87
2023/01/15 15:57:32;;;;;;;3.87;1.10;;;;;;;2.38;100.00;95605.75;4878068;29;21222;-87
2023/01/15 16:00:02;;;;;;;6.10;2.60;;;;;;;2.39;100.00;95615.19;4857715;29;20033;-87
2023/01/15 16:02:33;;;;;;;11.83;4.40;;;;;;;2.43;100.00;95613.19;4867238;29;20528;-88
2023/01/15 16:05:20;;;;;;;8.10;2.60;;;;;;;2.42;100.00;95607.16;4872972;29;20037;-87
2023/01/15 16:07:46;;;;;;;3.13;1.00;;;;;;;2.39;100.00;95604.81;4848899;29;20667;-87
2023/01/15 16:10:24;;;;;;;2.60;0.77;;;;;;;2.39;100.00;95602.22;4852480;29;20041;-87
2023/01/15 16:13:05;;;;;;;3.20;0.97;;;;;;;2.43;100.00;95606.22;4867586;29;20109;-87
2023/01/15 16:15:41;;;;;;;2.90;1.10;;;;;;;2.47;100.00;95605.00;4863228;29;20021;-86
2023/01/15 16:18:20;;;;;;;3.57;1.00;;;;;;;2.46;100.00;95599.94;4846196;29;20117;-86